sensor_id;sensor_type;location;lat;lon;timestamp;P1;durP1;ratioP1;P2;durP2;ratioP2
30723;SDS011;17473;52.286;20.930;2023-07-13T00:02:22;11.05;;;7.68;;
30723;SDS011;17473;52.286;20.930;2023-07-13T00:04:51;10.45;;;8.40;;
30723;SDS011;17473;52.286;20.930;2023-07-13T00:07:18;17.95;;;8.65;;
30723;SDS011;17473;52.286;20.930;2023-07-13T00:09:50;15.45;;;7.93;;
30723;SDS011;17473;52.286;20.930;2023-07-13T00:12:32;10.55;;;7.35;;
30723;SDS011;17473;52.286;20.930;2023-07-13T00:15:04;10.05;;;7.45;;
30723;SDS011;17473;52.286;20.930;2023-07-13T00:17:37;13.20;;;7.90;;
30723;SDS011;17473;52.286;20.930;2023-07-13T00:20:05;12.57;;;7.75;;
30723;SDS011;17473;52.286;20.930;2023-07-13T00:22:33;12.20;;;7.32;;
30723;SDS011;17473;52.286;20.930;2023-07-13T00:25:00;10.18;;;8.25;;
30723;SDS011;17473;52.286;20.930;2023-07-13T00:27:27;10.05;;;8.20;;
30723;SDS011;17473;52.286;20.930;2023-07-13T00:29:58;10.65;;;8.35;;
30723;SDS011;17473;52.286;20.930;2023-07-13T00:32:25;12.75;;;8.05;;
30723;SDS011;17473;52.286;20.930;2023-07-13T00:34:54;10.68;;;8.65;;
30723;SDS011;17473;52.286;20.930;2023-07-13T00:37:21;11.23;;;8.00;;
30723;SDS011;17473;52.286;20.930;2023-07-13T00:39:48;16.25;;;9.20;;
30723;SDS011;17473;52.286;20.930;2023-07-13T00:42:15;13.15;;;8.45;;
30723;SDS011;17473;52.286;20.930;2023-07-13T00:45:00;14.88;;;8.05;;
30723;SDS011;17473;52.286;20.930;2023-07-13T00:47:53;12.02;;;8.10;;
30723;SDS011;17473;52.286;20.930;2023-07-13T00:50:23;12.40;;;8.73;;
30723;SDS011;17473;52.286;20.930;2023-07-13T00:52:52;12.68;;;9.23;;
30723;SDS011;17473;52.286;20.930;2023-07-13T00:55:23;13.48;;;9.23;;
30723;SDS011;17473;52.286;20.930;2023-07-13T00:57:51;12.85;;;8.75;;
30723;SDS011;17473;52.286;20.930;2023-07-13T01:00:18;12.57;;;9.50;;
30723;SDS011;17473;52.286;20.930;2023-07-13T01:02:48;13.25;;;9.35;;
30723;SDS011;17473;52.286;20.930;2023-07-13T01:05:17;14.13;;;9.88;;
30723;SDS011;17473;52.286;20.930;2023-07-13T01:07:47;13.95;;;8.60;;
30723;SDS011;17473;52.286;20.930;2023-07-13T01:10:21;13.48;;;9.18;;
30723;SDS011;17473;52.286;20.930;2023-07-13T01:12:49;12.65;;;8.60;;
30723;SDS011;17473;52.286;20.930;2023-07-13T01:18:21;14.13;;;9.73;;
30723;SDS011;17473;52.286;20.930;2023-07-13T01:20:58;10.70;;;8.65;;
30723;SDS011;17473;52.286;20.930;2023-07-13T01:23:29;13.75;;;8.95;;
30723;SDS011;17473;52.286;20.930;2023-07-13T01:25:58;11.27;;;8.82;;
30723;SDS011;17473;52.286;20.930;2023-07-13T01:28:26;12.60;;;8.57;;
30723;SDS011;17473;52.286;20.930;2023-07-13T01:30:55;12.43;;;8.73;;
30723;SDS011;17473;52.286;20.930;2023-07-13T01:33:25;15.07;;;9.15;;
30723;SDS011;17473;52.286;20.930;2023-07-13T01:35:52;13.18;;;8.77;;
30723;SDS011;17473;52.286;20.930;2023-07-13T01:38:21;14.73;;;9.63;;
30723;SDS011;17473;52.286;20.930;2023-07-13T01:40:50;12.98;;;9.32;;
30723;SDS011;17473;52.286;20.930;2023-07-13T01:43:18;9.85;;;7.75;;
30723;SDS011;17473;52.286;20.930;2023-07-13T01:45:46;13.70;;;10.02;;
30723;SDS011;17473;52.286;20.930;2023-07-13T01:48:13;12.52;;;8.60;;
30723;SDS011;17473;52.286;20.930;2023-07-13T01:50:41;19.38;;;9.57;;
30723;SDS011;17473;52.286;20.930;2023-07-13T01:53:08;10.18;;;8.60;;
30723;SDS011;17473;52.286;20.930;2023-07-13T01:55:37;21.23;;;8.93;;
30723;SDS011;17473;52.286;20.930;2023-07-13T01:58:04;10.35;;;8.88;;
30723;SDS011;17473;52.286;20.930;2023-07-13T02:00:33;11.98;;;9.40;;
30723;SDS011;17473;52.286;20.930;2023-07-13T02:03:00;13.48;;;9.05;;
30723;SDS011;17473;52.286;20.930;2023-07-13T02:05:27;15.73;;;9.50;;
30723;SDS011;17473;52.286;20.930;2023-07-13T02:07:54;14.48;;;8.90;;
30723;SDS011;17473;52.286;20.930;2023-07-13T02:10:21;12.57;;;9.40;;
30723;SDS011;17473;52.286;20.930;2023-07-13T02:12:48;19.13;;;9.60;;
30723;SDS011;17473;52.286;20.930;2023-07-13T02:15:17;11.65;;;9.32;;
30723;SDS011;17473;52.286;20.930;2023-07-13T02:17:45;14.15;;;9.73;;
30723;SDS011;17473;52.286;20.930;2023-07-13T02:20:12;13.38;;;9.43;;
30723;SDS011;17473;52.286;20.930;2023-07-13T02:22:39;13.32;;;9.93;;
30723;SDS011;17473;52.286;20.930;2023-07-13T02:25:07;12.10;;;9.88;;
30723;SDS011;17473;52.286;20.930;2023-07-13T02:27:34;16.77;;;10.13;;
30723;SDS011;17473;52.286;20.930;2023-07-13T02:30:01;11.95;;;9.05;;
30723;SDS011;17473;52.286;20.930;2023-07-13T02:32:29;15.45;;;9.45;;
30723;SDS011;17473;52.286;20.930;2023-07-13T02:34:56;12.45;;;9.77;;
30723;SDS011;17473;52.286;20.930;2023-07-13T02:37:24;11.35;;;8.73;;
30723;SDS011;17473;52.286;20.930;2023-07-13T02:39:51;14.48;;;9.63;;
30723;SDS011;17473;52.286;20.930;2023-07-13T02:42:18;13.20;;;9.68;;
30723;SDS011;17473;52.286;20.930;2023-07-13T02:44:45;11.15;;;9.38;;
30723;SDS011;17473;52.286;20.930;2023-07-13T02:47:12;12.25;;;9.20;;
30723;SDS011;17473;52.286;20.930;2023-07-13T02:49:39;11.50;;;8.98;;
30723;SDS011;17473;52.286;20.930;2023-07-13T02:52:06;16.00;;;10.10;;
30723;SDS011;17473;52.286;20.930;2023-07-13T02:54:34;12.75;;;9.32;;
30723;SDS011;17473;52.286;20.930;2023-07-13T02:57:01;12.38;;;9.50;;
30723;SDS011;17473;52.286;20.930;2023-07-13T02:59:28;17.08;;;10.27;;
30723;SDS011;17473;52.286;20.930;2023-07-13T03:01:55;15.30;;;9.32;;
30723;SDS011;17473;52.286;20.930;2023-07-13T03:04:22;12.60;;;9.73;;
30723;SDS011;17473;52.286;20.930;2023-07-13T03:06:49;12.32;;;9.40;;
30723;SDS011;17473;52.286;20.930;2023-07-13T03:09:17;16.05;;;9.73;;
30723;SDS011;17473;52.286;20.930;2023-07-13T03:11:44;12.77;;;9.63;;
30723;SDS011;17473;52.286;20.930;2023-07-13T03:14:11;15.25;;;10.15;;
30723;SDS011;17473;52.286;20.930;2023-07-13T03:16:38;14.07;;;9.40;;
30723;SDS011;17473;52.286;20.930;2023-07-13T03:19:06;12.43;;;8.90;;
30723;SDS011;17473;52.286;20.930;2023-07-13T03:21:33;15.70;;;9.75;;
30723;SDS011;17473;52.286;20.930;2023-07-13T03:24:00;14.82;;;10.13;;
30723;SDS011;17473;52.286;20.930;2023-07-13T03:26:27;14.10;;;10.18;;
30723;SDS011;17473;52.286;20.930;2023-07-13T03:28:54;16.05;;;10.65;;
30723;SDS011;17473;52.286;20.930;2023-07-13T03:31:22;15.02;;;9.85;;
30723;SDS011;17473;52.286;20.930;2023-07-13T03:33:55;16.42;;;10.77;;
30723;SDS011;17473;52.286;20.930;2023-07-13T03:36:24;18.42;;;10.43;;
30723;SDS011;17473;52.286;20.930;2023-07-13T03:38:55;15.23;;;10.45;;
30723;SDS011;17473;52.286;20.930;2023-07-13T03:41:25;14.60;;;10.73;;
30723;SDS011;17473;52.286;20.930;2023-07-13T03:43:53;16.85;;;10.07;;
30723;SDS011;17473;52.286;20.930;2023-07-13T03:46:21;13.73;;;9.57;;
30723;SDS011;17473;52.286;20.930;2023-07-13T03:48:48;19.33;;;10.38;;
30723;SDS011;17473;52.286;20.930;2023-07-13T03:51:15;14.07;;;9.73;;
30723;SDS011;17473;52.286;20.930;2023-07-13T03:53:44;13.30;;;9.52;;
30723;SDS011;17473;52.286;20.930;2023-07-13T03:56:14;13.43;;;8.73;;
30723;SDS011;17473;52.286;20.930;2023-07-13T03:58:45;15.82;;;9.55;;
30723;SDS011;17473;52.286;20.930;2023-07-13T04:01:14;17.98;;;9.55;;
30723;SDS011;17473;52.286;20.930;2023-07-13T04:03:44;11.98;;;8.48;;
30723;SDS011;17473;52.286;20.930;2023-07-13T04:06:17;15.98;;;8.68;;
30723;SDS011;17473;52.286;20.930;2023-07-13T04:08:53;18.63;;;9.32;;
30723;SDS011;17473;52.286;20.930;2023-07-13T04:11:23;13.45;;;9.20;;
30723;SDS011;17473;52.286;20.930;2023-07-13T04:13:55;13.75;;;8.93;;
30723;SDS011;17473;52.286;20.930;2023-07-13T04:16:22;13.68;;;8.88;;
30723;SDS011;17473;52.286;20.930;2023-07-13T04:18:50;12.15;;;8.57;;
30723;SDS011;17473;52.286;20.930;2023-07-13T04:21:21;16.40;;;8.82;;
30723;SDS011;17473;52.286;20.930;2023-07-13T04:23:48;11.07;;;7.85;;
30723;SDS011;17473;52.286;20.930;2023-07-13T04:26:16;12.93;;;8.10;;
30723;SDS011;17473;52.286;20.930;2023-07-13T04:28:47;13.23;;;8.38;;
30723;SDS011;17473;52.286;20.930;2023-07-13T04:31:15;10.40;;;8.38;;
30723;SDS011;17473;52.286;20.930;2023-07-13T04:33:43;11.93;;;8.35;;
30723;SDS011;17473;52.286;20.930;2023-07-13T04:36:13;15.90;;;8.32;;
30723;SDS011;17473;52.286;20.930;2023-07-13T04:38:42;17.25;;;8.77;;
30723;SDS011;17473;52.286;20.930;2023-07-13T04:41:10;11.70;;;8.10;;
30723;SDS011;17473;52.286;20.930;2023-07-13T04:43:38;15.45;;;9.45;;
30723;SDS011;17473;52.286;20.930;2023-07-13T04:46:13;12.65;;;8.82;;
30723;SDS011;17473;52.286;20.930;2023-07-13T04:48:43;9.93;;;8.90;;
30723;SDS011;17473;52.286;20.930;2023-07-13T04:51:11;15.18;;;9.63;;
30723;SDS011;17473;52.286;20.930;2023-07-13T04:53:38;15.15;;;9.93;;
30723;SDS011;17473;52.286;20.930;2023-07-13T04:56:05;15.23;;;9.82;;
30723;SDS011;17473;52.286;20.930;2023-07-13T04:58:33;23.67;;;10.13;;
30723;SDS011;17473;52.286;20.930;2023-07-13T05:01:04;18.27;;;10.30;;
30723;SDS011;17473;52.286;20.930;2023-07-13T05:03:32;19.50;;;12.20;;
30723;SDS011;17473;52.286;20.930;2023-07-13T05:06:02;20.13;;;12.68;;
30723;SDS011;17473;52.286;20.930;2023-07-13T05:08:32;23.52;;;14.45;;
30723;SDS011;17473;52.286;20.930;2023-07-13T05:11:00;21.98;;;13.95;;
30723;SDS011;17473;52.286;20.930;2023-07-13T05:13:29;25.80;;;13.98;;
30723;SDS011;17473;52.286;20.930;2023-07-13T05:15:58;27.98;;;15.07;;
30723;SDS011;17473;52.286;20.930;2023-07-13T05:18:28;24.60;;;16.25;;
30723;SDS011;17473;52.286;20.930;2023-07-13T05:20:59;26.33;;;14.70;;
30723;SDS011;17473;52.286;20.930;2023-07-13T05:23:30;27.65;;;15.68;;
30723;SDS011;17473;52.286;20.930;2023-07-13T05:25:58;24.05;;;14.38;;
30723;SDS011;17473;52.286;20.930;2023-07-13T05:28:26;24.48;;;13.48;;
30723;SDS011;17473;52.286;20.930;2023-07-13T05:30:55;17.20;;;12.20;;
30723;SDS011;17473;52.286;20.930;2023-07-13T05:33:24;18.80;;;13.27;;
30723;SDS011;17473;52.286;20.930;2023-07-13T05:35:52;25.15;;;13.30;;
30723;SDS011;17473;52.286;20.930;2023-07-13T05:38:20;21.30;;;13.43;;
30723;SDS011;17473;52.286;20.930;2023-07-13T05:40:47;21.88;;;12.10;;
30723;SDS011;17473;52.286;20.930;2023-07-13T05:43:16;26.83;;;10.95;;
30723;SDS011;17473;52.286;20.930;2023-07-13T05:45:43;21.65;;;11.05;;
30723;SDS011;17473;52.286;20.930;2023-07-13T05:48:10;24.70;;;10.85;;
30723;SDS011;17473;52.286;20.930;2023-07-13T05:50:38;27.20;;;13.27;;
30723;SDS011;17473;52.286;20.930;2023-07-13T05:53:05;26.58;;;12.90;;
30723;SDS011;17473;52.286;20.930;2023-07-13T05:55:32;24.55;;;12.27;;
30723;SDS011;17473;52.286;20.930;2023-07-13T05:57:59;20.40;;;12.88;;
30723;SDS011;17473;52.286;20.930;2023-07-13T06:00:28;23.95;;;12.35;;
30723;SDS011;17473;52.286;20.930;2023-07-13T06:02:55;22.25;;;14.07;;
30723;SDS011;17473;52.286;20.930;2023-07-13T06:05:25;21.58;;;13.27;;
30723;SDS011;17473;52.286;20.930;2023-07-13T06:07:55;19.13;;;11.93;;
30723;SDS011;17473;52.286;20.930;2023-07-13T06:10:22;17.83;;;11.77;;
30723;SDS011;17473;52.286;20.930;2023-07-13T06:12:49;15.20;;;11.75;;
30723;SDS011;17473;52.286;20.930;2023-07-13T06:15:16;18.35;;;12.40;;
30723;SDS011;17473;52.286;20.930;2023-07-13T06:17:44;14.55;;;11.18;;
30723;SDS011;17473;52.286;20.930;2023-07-13T06:20:11;19.15;;;11.68;;
30723;SDS011;17473;52.286;20.930;2023-07-13T06:22:38;20.75;;;10.80;;
30723;SDS011;17473;52.286;20.930;2023-07-13T06:25:06;21.00;;;11.73;;
30723;SDS011;17473;52.286;20.930;2023-07-13T06:27:34;14.90;;;10.93;;
30723;SDS011;17473;52.286;20.930;2023-07-13T06:30:01;18.20;;;9.98;;
30723;SDS011;17473;52.286;20.930;2023-07-13T06:32:28;15.90;;;9.63;;
30723;SDS011;17473;52.286;20.930;2023-07-13T06:34:55;21.25;;;10.70;;
30723;SDS011;17473;52.286;20.930;2023-07-13T06:37:22;13.25;;;8.48;;
30723;SDS011;17473;52.286;20.930;2023-07-13T06:39:50;13.70;;;8.70;;
30723;SDS011;17473;52.286;20.930;2023-07-13T06:42:17;13.43;;;7.95;;
30723;SDS011;17473;52.286;20.930;2023-07-13T06:44:44;10.60;;;7.07;;
30723;SDS011;17473;52.286;20.930;2023-07-13T06:47:11;11.70;;;6.10;;
30723;SDS011;17473;52.286;20.930;2023-07-13T06:49:38;9.48;;;5.80;;
30723;SDS011;17473;52.286;20.930;2023-07-13T06:52:06;9.00;;;6.32;;
30723;SDS011;17473;52.286;20.930;2023-07-13T06:54:33;14.27;;;6.40;;
30723;SDS011;17473;52.286;20.930;2023-07-13T06:57:01;11.68;;;5.25;;
30723;SDS011;17473;52.286;20.930;2023-07-13T06:59:28;9.77;;;5.40;;
30723;SDS011;17473;52.286;20.930;2023-07-13T07:01:55;10.85;;;5.78;;
30723;SDS011;17473;52.286;20.930;2023-07-13T07:04:23;10.52;;;5.50;;
30723;SDS011;17473;52.286;20.930;2023-07-13T07:06:50;9.45;;;5.10;;
30723;SDS011;17473;52.286;20.930;2023-07-13T07:09:17;9.00;;;5.22;;
30723;SDS011;17473;52.286;20.930;2023-07-13T07:11:44;13.05;;;4.97;;
30723;SDS011;17473;52.286;20.930;2023-07-13T07:14:28;9.32;;;5.15;;
30723;SDS011;17473;52.286;20.930;2023-07-13T07:16:55;11.13;;;4.75;;
30723;SDS011;17473;52.286;20.930;2023-07-13T07:19:25;8.00;;;5.20;;
30723;SDS011;17473;52.286;20.930;2023-07-13T07:21:54;11.95;;;4.95;;
30723;SDS011;17473;52.286;20.930;2023-07-13T07:24:21;9.10;;;4.82;;
30723;SDS011;17473;52.286;20.930;2023-07-13T07:26:48;5.47;;;4.05;;
30723;SDS011;17473;52.286;20.930;2023-07-13T07:29:18;8.82;;;4.35;;
30723;SDS011;17473;52.286;20.930;2023-07-13T07:31:48;7.35;;;4.93;;
30723;SDS011;17473;52.286;20.930;2023-07-13T07:34:32;8.55;;;4.50;;
30723;SDS011;17473;52.286;20.930;2023-07-13T07:36:59;6.50;;;4.22;;
30723;SDS011;17473;52.286;20.930;2023-07-13T07:39:30;6.75;;;4.32;;
30723;SDS011;17473;52.286;20.930;2023-07-13T07:41:58;11.82;;;4.38;;
30723;SDS011;17473;52.286;20.930;2023-07-13T07:44:25;8.80;;;4.82;;
30723;SDS011;17473;52.286;20.930;2023-07-13T07:46:53;5.72;;;4.20;;
30723;SDS011;17473;52.286;20.930;2023-07-13T07:49:20;6.65;;;3.75;;
30723;SDS011;17473;52.286;20.930;2023-07-13T07:51:48;4.72;;;3.50;;
30723;SDS011;17473;52.286;20.930;2023-07-13T07:54:15;5.28;;;3.42;;
30723;SDS011;17473;52.286;20.930;2023-07-13T07:57:02;5.13;;;3.50;;
30723;SDS011;17473;52.286;20.930;2023-07-13T07:59:33;8.25;;;3.38;;
30723;SDS011;17473;52.286;20.930;2023-07-13T08:02:03;7.38;;;3.08;;
30723;SDS011;17473;52.286;20.930;2023-07-13T08:04:33;6.32;;;3.00;;
30723;SDS011;17473;52.286;20.930;2023-07-13T08:07:03;5.22;;;3.75;;
30723;SDS011;17473;52.286;20.930;2023-07-13T08:09:31;4.25;;;3.72;;
30723;SDS011;17473;52.286;20.930;2023-07-13T08:11:58;8.73;;;3.92;;
30723;SDS011;17473;52.286;20.930;2023-07-13T08:14:28;5.35;;;4.25;;
30723;SDS011;17473;52.286;20.930;2023-07-13T08:17:15;6.18;;;4.70;;
30723;SDS011;17473;52.286;20.930;2023-07-13T08:19:43;7.18;;;4.00;;
30723;SDS011;17473;52.286;20.930;2023-07-13T08:22:10;5.72;;;3.78;;
30723;SDS011;17473;52.286;20.930;2023-07-13T08:24:38;6.10;;;4.00;;
30723;SDS011;17473;52.286;20.930;2023-07-13T08:27:05;7.57;;;3.58;;
30723;SDS011;17473;52.286;20.930;2023-07-13T08:29:32;5.35;;;3.28;;
30723;SDS011;17473;52.286;20.930;2023-07-13T08:32:00;8.00;;;3.30;;
30723;SDS011;17473;52.286;20.930;2023-07-13T08:34:27;8.02;;;3.63;;
30723;SDS011;17473;52.286;20.930;2023-07-13T08:36:54;5.85;;;3.97;;
30723;SDS011;17473;52.286;20.930;2023-07-13T08:39:21;4.57;;;3.75;;
30723;SDS011;17473;52.286;20.930;2023-07-13T08:41:53;4.15;;;3.28;;
30723;SDS011;17473;52.286;20.930;2023-07-13T08:47:09;4.88;;;3.17;;
30723;SDS011;17473;52.286;20.930;2023-07-13T08:49:39;5.03;;;3.25;;
30723;SDS011;17473;52.286;20.930;2023-07-13T08:52:12;4.78;;;3.33;;
30723;SDS011;17473;52.286;20.930;2023-07-13T08:55:08;5.75;;;3.60;;
30723;SDS011;17473;52.286;20.930;2023-07-13T08:57:48;9.13;;;3.88;;
30723;SDS011;17473;52.286;20.930;2023-07-13T09:00:22;5.25;;;3.40;;
30723;SDS011;17473;52.286;20.930;2023-07-13T09:02:57;3.75;;;3.33;;
30723;SDS011;17473;52.286;20.930;2023-07-13T09:05:30;6.53;;;3.67;;
30723;SDS011;17473;52.286;20.930;2023-07-13T09:08:08;7.00;;;3.83;;
30723;SDS011;17473;52.286;20.930;2023-07-13T09:14:00;8.65;;;3.90;;
30723;SDS011;17473;52.286;20.930;2023-07-13T09:16:49;6.03;;;3.90;;
30723;SDS011;17473;52.286;20.930;2023-07-13T09:19:21;12.70;;;4.20;;
30723;SDS011;17473;52.286;20.930;2023-07-13T09:21:56;5.85;;;4.20;;
30723;SDS011;17473;52.286;20.930;2023-07-13T09:27:14;5.55;;;3.95;;
30723;SDS011;17473;52.286;20.930;2023-07-13T09:32:43;6.13;;;3.10;;
30723;SDS011;17473;52.286;20.930;2023-07-13T09:35:19;5.75;;;2.75;;
30723;SDS011;17473;52.286;20.930;2023-07-13T09:37:57;2.60;;;2.35;;
30723;SDS011;17473;52.286;20.930;2023-07-13T09:40:48;4.13;;;2.25;;
30723;SDS011;17473;52.286;20.930;2023-07-13T09:47:00;3.13;;;2.10;;
30723;SDS011;17473;52.286;20.930;2023-07-13T09:49:27;3.92;;;2.33;;
30723;SDS011;17473;52.286;20.930;2023-07-13T09:52:10;2.60;;;2.15;;
30723;SDS011;17473;52.286;20.930;2023-07-13T09:54:44;5.57;;;3.05;;
30723;SDS011;17473;52.286;20.930;2023-07-13T09:57:16;5.85;;;2.88;;
30723;SDS011;17473;52.286;20.930;2023-07-13T09:59:59;6.05;;;3.20;;
30723;SDS011;17473;52.286;20.930;2023-07-13T10:02:28;4.30;;;2.88;;
30723;SDS011;17473;52.286;20.930;2023-07-13T10:07:31;3.92;;;3.50;;
30723;SDS011;17473;52.286;20.930;2023-07-13T10:10:12;9.98;;;3.63;;
30723;SDS011;17473;52.286;20.930;2023-07-13T10:12:43;5.07;;;3.45;;
30723;SDS011;17473;52.286;20.930;2023-07-13T10:15:15;9.25;;;3.78;;
30723;SDS011;17473;52.286;20.930;2023-07-13T10:17:50;7.78;;;3.60;;
30723;SDS011;17473;52.286;20.930;2023-07-13T10:20:21;3.92;;;3.25;;
30723;SDS011;17473;52.286;20.930;2023-07-13T10:22:59;5.65;;;3.03;;
30723;SDS011;17473;52.286;20.930;2023-07-13T10:25:32;3.75;;;3.05;;
30723;SDS011;17473;52.286;20.930;2023-07-13T10:28:11;4.45;;;3.15;;
30723;SDS011;17473;52.286;20.930;2023-07-13T10:31:06;3.95;;;3.03;;
30723;SDS011;17473;52.286;20.930;2023-07-13T10:33:40;7.13;;;3.22;;
30723;SDS011;17473;52.286;20.930;2023-07-13T10:36:16;5.38;;;2.80;;
30723;SDS011;17473;52.286;20.930;2023-07-13T10:38:57;7.30;;;3.50;;
30723;SDS011;17473;52.286;20.930;2023-07-13T10:41:28;7.53;;;3.63;;
30723;SDS011;17473;52.286;20.930;2023-07-13T10:44:02;7.72;;;3.97;;
30723;SDS011;17473;52.286;20.930;2023-07-13T10:46:31;15.13;;;4.80;;
30723;SDS011;17473;52.286;20.930;2023-07-13T10:48:59;15.07;;;5.45;;
30723;SDS011;17473;52.286;20.930;2023-07-13T10:51:31;13.57;;;6.80;;
30723;SDS011;17473;52.286;20.930;2023-07-13T10:54:15;16.52;;;7.75;;
30723;SDS011;17473;52.286;20.930;2023-07-13T10:56:52;20.75;;;8.10;;
30723;SDS011;17473;52.286;20.930;2023-07-13T10:59:39;14.85;;;6.50;;
30723;SDS011;17473;52.286;20.930;2023-07-13T11:02:12;13.07;;;5.32;;
30723;SDS011;17473;52.286;20.930;2023-07-13T11:04:54;16.02;;;5.25;;
30723;SDS011;17473;52.286;20.930;2023-07-13T11:07:30;7.10;;;4.20;;
30723;SDS011;17473;52.286;20.930;2023-07-13T11:09:59;9.95;;;4.45;;
30723;SDS011;17473;52.286;20.930;2023-07-13T11:15:14;6.88;;;3.92;;
30723;SDS011;17473;52.286;20.930;2023-07-13T11:17:54;6.03;;;3.67;;
30723;SDS011;17473;52.286;20.930;2023-07-13T11:20:37;7.13;;;4.18;;
30723;SDS011;17473;52.286;20.930;2023-07-13T11:23:08;8.07;;;3.83;;
30723;SDS011;17473;52.286;20.930;2023-07-13T11:25:45;9.10;;;3.55;;
30723;SDS011;17473;52.286;20.930;2023-07-13T11:28:17;6.40;;;3.90;;
30723;SDS011;17473;52.286;20.930;2023-07-13T11:33:27;11.15;;;4.50;;
30723;SDS011;17473;52.286;20.930;2023-07-13T11:36:17;8.45;;;4.20;;
30723;SDS011;17473;52.286;20.930;2023-07-13T11:38:59;9.15;;;4.72;;
30723;SDS011;17473;52.286;20.930;2023-07-13T11:41:44;6.70;;;3.55;;
30723;SDS011;17473;52.286;20.930;2023-07-13T11:44:35;6.68;;;3.60;;
30723;SDS011;17473;52.286;20.930;2023-07-13T11:47:29;4.78;;;3.10;;
30723;SDS011;17473;52.286;20.930;2023-07-13T11:49:57;6.82;;;3.40;;
30723;SDS011;17473;52.286;20.930;2023-07-13T11:52:28;6.03;;;3.72;;
30723;SDS011;17473;52.286;20.930;2023-07-13T11:55:04;6.20;;;3.83;;
30723;SDS011;17473;52.286;20.930;2023-07-13T11:57:47;5.88;;;3.33;;
30723;SDS011;17473;52.286;20.930;2023-07-13T12:00:28;5.45;;;3.72;;
30723;SDS011;17473;52.286;20.930;2023-07-13T12:03:00;6.78;;;3.75;;
30723;SDS011;17473;52.286;20.930;2023-07-13T12:05:31;14.50;;;4.40;;
30723;SDS011;17473;52.286;20.930;2023-07-13T12:07:59;6.63;;;4.32;;
30723;SDS011;17473;52.286;20.930;2023-07-13T12:10:35;9.07;;;4.05;;
30723;SDS011;17473;52.286;20.930;2023-07-13T12:13:04;8.77;;;3.90;;
30723;SDS011;17473;52.286;20.930;2023-07-13T12:15:37;7.05;;;3.90;;
30723;SDS011;17473;52.286;20.930;2023-07-13T12:18:20;6.60;;;3.95;;
30723;SDS011;17473;52.286;20.930;2023-07-13T12:20:50;5.55;;;4.13;;
30723;SDS011;17473;52.286;20.930;2023-07-13T12:25:54;7.18;;;3.92;;
30723;SDS011;17473;52.286;20.930;2023-07-13T12:28:55;6.38;;;3.83;;
30723;SDS011;17473;52.286;20.930;2023-07-13T12:31:29;6.47;;;3.97;;
30723;SDS011;17473;52.286;20.930;2023-07-13T12:34:09;5.15;;;4.18;;
30723;SDS011;17473;52.286;20.930;2023-07-13T12:36:40;9.05;;;4.00;;
30723;SDS011;17473;52.286;20.930;2023-07-13T12:39:25;6.70;;;3.95;;
30723;SDS011;17473;52.286;20.930;2023-07-13T12:45:00;6.10;;;4.20;;
30723;SDS011;17473;52.286;20.930;2023-07-13T12:47:40;10.05;;;3.67;;
30723;SDS011;17473;52.286;20.930;2023-07-13T12:50:15;6.95;;;4.40;;
30723;SDS011;17473;52.286;20.930;2023-07-13T12:52:56;9.85;;;5.13;;
30723;SDS011;17473;52.286;20.930;2023-07-13T12:55:40;6.53;;;3.78;;
30723;SDS011;17473;52.286;20.930;2023-07-13T12:58:32;5.43;;;3.95;;
30723;SDS011;17473;52.286;20.930;2023-07-13T13:01:14;10.63;;;4.13;;
30723;SDS011;17473;52.286;20.930;2023-07-13T13:03:47;8.77;;;3.58;;
30723;SDS011;17473;52.286;20.930;2023-07-13T13:06:24;8.10;;;4.05;;
30723;SDS011;17473;52.286;20.930;2023-07-13T13:08:54;5.53;;;4.10;;
30723;SDS011;17473;52.286;20.930;2023-07-13T13:11:25;9.85;;;3.88;;
30723;SDS011;17473;52.286;20.930;2023-07-13T13:13:54;6.53;;;3.92;;
30723;SDS011;17473;52.286;20.930;2023-07-13T13:16:22;8.02;;;3.92;;
30723;SDS011;17473;52.286;20.930;2023-07-13T13:18:53;9.20;;;3.90;;
30723;SDS011;17473;52.286;20.930;2023-07-13T13:21:23;6.20;;;3.95;;
30723;SDS011;17473;52.286;20.930;2023-07-13T13:23:51;7.20;;;4.30;;
30723;SDS011;17473;52.286;20.930;2023-07-13T13:26:20;8.05;;;4.20;;
30723;SDS011;17473;52.286;20.930;2023-07-13T13:28:49;7.57;;;4.18;;
30723;SDS011;17473;52.286;20.930;2023-07-13T13:31:16;7.45;;;3.72;;
30723;SDS011;17473;52.286;20.930;2023-07-13T13:33:44;6.45;;;4.00;;
30723;SDS011;17473;52.286;20.930;2023-07-13T13:36:19;9.20;;;5.10;;
30723;SDS011;17473;52.286;20.930;2023-07-13T13:38:50;8.55;;;4.90;;
30723;SDS011;17473;52.286;20.930;2023-07-13T13:41:17;8.02;;;4.82;;
30723;SDS011;17473;52.286;20.930;2023-07-13T13:43:45;8.63;;;4.72;;
30723;SDS011;17473;52.286;20.930;2023-07-13T13:46:17;8.02;;;5.38;;
30723;SDS011;17473;52.286;20.930;2023-07-13T13:48:51;11.55;;;5.40;;
30723;SDS011;17473;52.286;20.930;2023-07-13T13:51:20;9.90;;;5.18;;
30723;SDS011;17473;52.286;20.930;2023-07-13T13:53:49;8.90;;;5.10;;
30723;SDS011;17473;52.286;20.930;2023-07-13T13:56:19;8.93;;;4.95;;
30723;SDS011;17473;52.286;20.930;2023-07-13T13:58:47;5.72;;;4.72;;
30723;SDS011;17473;52.286;20.930;2023-07-13T14:01:18;11.65;;;5.50;;
30723;SDS011;17473;52.286;20.930;2023-07-13T14:03:48;8.73;;;5.15;;
30723;SDS011;17473;52.286;20.930;2023-07-13T14:06:17;13.07;;;5.47;;
30723;SDS011;17473;52.286;20.930;2023-07-13T14:08:44;16.83;;;5.75;;
30723;SDS011;17473;52.286;20.930;2023-07-13T14:11:13;9.02;;;5.75;;
30723;SDS011;17473;52.286;20.930;2023-07-13T14:13:44;10.25;;;5.97;;
30723;SDS011;17473;52.286;20.930;2023-07-13T14:16:26;10.02;;;5.70;;
30723;SDS011;17473;52.286;20.930;2023-07-13T14:18:58;14.60;;;6.10;;
30723;SDS011;17473;52.286;20.930;2023-07-13T14:21:28;10.88;;;5.80;;
30723;SDS011;17473;52.286;20.930;2023-07-13T14:23:56;7.15;;;5.85;;
30723;SDS011;17473;52.286;20.930;2023-07-13T14:26:23;8.90;;;5.72;;
30723;SDS011;17473;52.286;20.930;2023-07-13T14:28:54;8.13;;;5.53;;
30723;SDS011;17473;52.286;20.930;2023-07-13T14:31:24;9.90;;;6.07;;
30723;SDS011;17473;52.286;20.930;2023-07-13T14:33:56;10.43;;;6.18;;
30723;SDS011;17473;52.286;20.930;2023-07-13T14:36:26;11.55;;;6.10;;
30723;SDS011;17473;52.286;20.930;2023-07-13T14:38:59;7.03;;;5.60;;
30723;SDS011;17473;52.286;20.930;2023-07-13T14:41:36;8.98;;;5.93;;
30723;SDS011;17473;52.286;20.930;2023-07-13T14:44:08;10.10;;;6.38;;
30723;SDS011;17473;52.286;20.930;2023-07-13T14:46:44;8.00;;;6.57;;
30723;SDS011;17473;52.286;20.930;2023-07-13T14:52:16;11.15;;;6.97;;
30723;SDS011;17473;52.286;20.930;2023-07-13T14:54:48;9.88;;;7.35;;
30723;SDS011;17473;52.286;20.930;2023-07-13T14:57:17;13.65;;;6.18;;
30723;SDS011;17473;52.286;20.930;2023-07-13T14:59:46;11.05;;;6.60;;
30723;SDS011;17473;52.286;20.930;2023-07-13T15:04:44;11.38;;;6.90;;
30723;SDS011;17473;52.286;20.930;2023-07-13T15:07:11;10.93;;;7.40;;
30723;SDS011;17473;52.286;20.930;2023-07-13T15:09:41;12.75;;;6.63;;
30723;SDS011;17473;52.286;20.930;2023-07-13T15:12:09;7.22;;;5.82;;
30723;SDS011;17473;52.286;20.930;2023-07-13T15:14:37;8.98;;;6.47;;
30723;SDS011;17473;52.286;20.930;2023-07-13T15:17:05;10.23;;;6.20;;
30723;SDS011;17473;52.286;20.930;2023-07-13T15:19:53;12.95;;;6.55;;
30723;SDS011;17473;52.286;20.930;2023-07-13T15:22:20;14.52;;;6.20;;
30723;SDS011;17473;52.286;20.930;2023-07-13T15:24:48;9.57;;;6.53;;
30723;SDS011;17473;52.286;20.930;2023-07-13T15:27:15;12.77;;;6.40;;